Time;durP1;ratioP1;P1;durP2;ratioP2;P2;SDS_P1;SDS_P2;PMS_P1;PMS_P2;Temp;Humidity;BMP_temperature;BMP_pressure;BME280_temperature;BME280_humidity;BME280_pressure;Samples;Min_cycle;Max_cycle;Signal;HPM_P1;HPM_P2
2022/12/29 00:01:46;;;;;;;3.13;1.37;;;;;;;11.32;92.47;99724.53;5061041;28;20199;-75
2022/12/29 00:04:13;;;;;;;2.27;1.70;;;;;;;11.33;92.83;99721.03;5058658;28;20182;-74
2022/12/29 00:06:39;;;;;;;1.60;1.30;;;;;;;11.33;92.72;99716.72;5060245;28;20294;-75
2022/12/29 00:09:04;;;;;;;1.60;1.43;;;;;;;11.33;92.94;99713.28;5055917;28;20627;-75
2022/12/29 00:11:29;;;;;;;4.67;1.40;;;;;;;11.33;93.00;99713.28;5060704;28;21812;-75
2022/12/29 00:16:44;;;;;;;3.67;1.60;;;;;;;11.34;92.81;99714.97;5058362;28;20208;-74
2022/12/29 00:35:07;;;;;;;4.30;1.50;;;;;;;11.36;92.81;99721.00;5061440;28;20266;-74
2022/12/29 00:35:50;;;;;;;2.07;1.60;;;;;;;11.32;93.43;99735.75;5057603;28;20707;-76
2022/12/29 00:46:27;;;;;;;3.90;1.53;;;;;;;11.25;93.67;99736.75;5060445;28;20876;-74
2022/12/29 00:51:36;;;;;;;2.13;1.47;;;;;;;11.23;95.30;99741.09;5061504;28;20939;-75
2022/12/29 00:54:02;;;;;;;2.57;1.40;;;;;;;11.22;96.14;99744.56;5060601;28;20191;-74
2022/12/29 00:56:27;;;;;;;2.27;1.20;;;;;;;11.20;97.17;99743.75;5060488;28;20208;-74
2022/12/29 00:58:52;;;;;;;1.83;1.50;;;;;;;11.16;97.32;99740.38;5060611;28;20247;-75
2022/12/29 01:01:18;;;;;;;2.03;1.30;;;;;;;11.14;97.73;99736.97;5059808;28;20235;-75
2022/12/29 01:03:44;;;;;;;1.93;1.23;;;;;;;11.15;98.88;99741.25;5060200;28;20194;-74
2022/12/29 01:06:11;;;;;;;1.33;1.10;;;;;;;11.11;99.06;99747.41;5062037;28;20197;-75
2022/12/29 01:08:37;;;;;;;2.07;1.57;;;;;;;11.08;99.47;99761.25;5063082;28;20656;-75
2022/12/29 01:11:06;;;;;;;2.53;1.60;;;;;;;11.06;99.30;99754.41;5062083;28;20235;-75
2022/12/29 01:13:32;;;;;;;1.40;1.20;;;;;;;11.05;99.54;99755.28;5056038;28;20186;-74
2022/12/29 01:15:57;;;;;;;1.50;1.40;;;;;;;11.05;99.06;99757.88;5062188;28;20560;-74
2022/12/29 01:18:24;;;;;;;2.23;1.50;;;;;;;11.05;99.23;99756.13;5059877;28;20306;-74
2022/12/29 01:20:49;;;;;;;2.40;1.37;;;;;;;11.02;99.02;99748.44;5060745;28;20180;-75
2022/12/29 01:23:15;;;;;;;2.17;1.70;;;;;;;11.03;99.10;99749.28;5062497;28;20627;-75
2022/12/29 01:25:40;;;;;;;2.93;1.83;;;;;;;11.00;98.75;99747.59;5061196;28;20183;-74
2022/12/29 01:28:08;;;;;;;2.07;1.40;;;;;;;10.97;98.84;99748.50;5060736;28;20219;-74
2022/12/29 01:30:34;;;;;;;1.57;1.33;;;;;;;10.96;98.61;99745.94;5060807;28;20186;-75
2022/12/29 01:32:59;;;;;;;2.20;1.23;;;;;;;10.93;98.98;99741.69;5062047;28;20929;-74
2022/12/29 01:35:24;;;;;;;3.77;1.40;;;;;;;10.92;98.73;99737.41;5060476;28;20316;-75
2022/12/29 01:37:50;;;;;;;3.03;1.50;;;;;;;10.91;98.36;99740.00;5059240;28;20333;-75
2022/12/29 01:40:15;;;;;;;1.47;1.20;;;;;;;10.90;98.42;99740.88;5059155;28;20264;-74
2022/12/29 01:42:40;;;;;;;2.83;1.53;;;;;;;10.87;98.26;99740.97;5060094;28;20212;-74
2022/12/29 01:45:11;;;;;;;1.47;1.23;;;;;;;10.86;98.60;99744.44;5061408;28;20190;-75
2022/12/29 01:47:46;;;;;;;1.43;1.20;;;;;;;10.83;98.68;99740.16;5059403;28;20222;-76
2022/12/29 01:50:22;;;;;;;2.03;1.33;;;;;;;10.83;98.61;99747.91;5061365;28;20217;-74
2022/12/29 01:52:57;;;;;;;2.63;1.57;;;;;;;10.86;98.58;99745.28;5078023;28;20179;-76
2022/12/29 01:55:23;;;;;;;2.83;1.43;;;;;;;10.86;98.18;99737.50;5092232;28;20174;-75
2022/12/29 01:57:52;;;;;;;2.17;1.50;;;;;;;10.84;98.33;99731.50;5071239;28;20299;-75
2022/12/29 02:00:18;;;;;;;2.57;1.50;;;;;;;10.84;98.13;99728.91;5064897;28;20523;-75
2022/12/29 02:02:51;;;;;;;2.13;1.27;;;;;;;10.88;97.62;99730.56;5063279;28;20190;-74
2022/12/29 02:05:27;;;;;;;2.97;1.40;;;;;;;10.88;97.85;99729.72;5064837;28;20186;-74
2022/12/29 02:07:53;;;;;;;1.93;1.30;;;;;;;10.91;97.44;99730.50;5062907;28;20267;-76
2022/12/29 02:10:21;;;;;;;3.47;1.50;;;;;;;10.94;97.62;99729.59;5064946;28;20551;-75
2022/12/29 02:12:46;;;;;;;3.27;1.50;;;;;;;10.94;97.20;99729.59;5061442;28;20193;-75
2022/12/29 02:15:13;;;;;;;2.50;1.43;;;;;;;10.94;97.21;99733.06;5064816;28;20192;-75
2022/12/29 02:18:03;;;;;;;1.53;1.23;;;;;;;10.95;96.81;99729.59;5062093;28;20202;-75
2022/12/29 02:20:47;;;;;;;2.67;1.20;;;;;;;10.95;97.50;99726.13;5060082;28;20667;-76
2022/12/29 02:23:34;;;;;;;2.20;1.43;;;;;;;10.96;96.59;99730.41;5063255;28;20205;-75
2022/12/29 02:26:02;;;;;;;1.60;1.30;;;;;;;10.94;96.84;99735.63;5060898;28;20187;-75
2022/12/29 02:28:33;;;;;;;2.30;1.27;;;;;;;10.95;96.85;99729.59;5064534;28;20193;-75
2022/12/29 02:31:17;;;;;;;3.00;1.87;;;;;;;10.97;96.22;99732.97;5063658;28;20191;-74
2022/12/29 02:34:21;;;;;;;1.73;1.30;;;;;;;10.96;96.53;99725.25;5061211;28;20204;-74
2022/12/29 02:37:08;;;;;;;2.53;1.70;;;;;;;10.93;96.50;99728.75;5058167;28;20214;-74
2022/12/29 02:39:42;;;;;;;1.80;1.40;;;;;;;10.97;96.14;99725.19;5063109;28;20935;-75
2022/12/29 02:42:18;;;;;;;2.13;1.30;;;;;;;10.99;95.88;99722.59;5062146;28;20213;-75
2022/12/29 02:44:56;;;;;;;2.43;1.23;;;;;;;10.97;95.91;99717.44;5061129;28;20186;-75
2022/12/29 02:47:41;;;;;;;2.13;1.23;;;;;;;10.98;95.93;99702.75;5060000;28;20214;-75
2022/12/29 02:50:13;;;;;;;2.70;1.50;;;;;;;10.98;95.97;99689.81;5063293;28;20269;-74
2022/12/29 02:52:46;;;;;;;2.93;1.20;;;;;;;11.01;95.66;99696.66;5063660;28;20188;-75
2022/12/29 02:55:11;;;;;;;4.17;1.20;;;;;;;10.99;96.61;99701.88;5064407;28;20184;-75
2022/12/29 02:57:37;;;;;;;3.03;1.40;;;;;;;10.98;97.01;99700.19;5062312;28;20553;-75
2022/12/29 03:00:07;;;;;;;2.03;1.30;;;;;;;10.96;97.72;99696.75;5063537;28;20578;-75
2022/12/29 03:02:38;;;;;;;3.27;1.30;;;;;;;10.94;97.58;99699.41;5062344;28;20468;-75
2022/12/29 03:05:06;;;;;;;1.43;1.17;;;;;;;10.91;97.95;99703.75;5063434;28;20194;-75
2022/12/29 03:08:04;;;;;;;2.53;1.30;;;;;;;10.89;98.06;99698.63;5062522;28;22271;-74
2022/12/29 03:10:50;;;;;;;1.80;1.13;;;;;;;10.88;98.45;99694.31;5058477;28;20194;-74
2022/12/29 03:16:23;;;;;;;2.90;1.20;;;;;;;10.87;98.44;99689.19;5058403;28;20224;-75
2022/12/29 03:18:56;;;;;;;1.47;1.23;;;;;;;10.87;98.16;99690.03;5062241;28;20182;-75
2022/12/29 03:22:26;;;;;;;2.93;1.20;;;;;;;10.90;97.68;99683.94;5059393;28;20269;-75
2022/12/29 03:24:10;;;;;;;1.90;1.10;;;;;;;10.89;97.54;99688.25;5062342;28;20208;-75
2022/12/29 03:26:37;;;;;;;2.73;1.43;;;;;;;10.91;97.49;99685.63;5059711;28;20286;-75
2022/12/29 03:29:05;;;;;;;3.83;1.47;;;;;;;10.93;97.20;99683.88;5058239;28;20901;-74
2022/12/29 03:31:31;;;;;;;1.90;1.40;;;;;;;10.94;96.66;99675.22;5064634;28;20172;-75
2022/12/29 03:33:58;;;;;;;1.40;1.30;;;;;;;10.94;96.45;99673.50;5063390;28;20541;-75
2022/12/29 03:36:30;;;;;;;1.80;1.40;;;;;;;10.94;96.34;99673.50;5062709;28;20959;-74
2022/12/29 03:39:11;;;;;;;3.70;1.40;;;;;;;10.98;96.06;99674.28;5060807;28;20187;-75
2022/12/29 03:41:37;;;;;;;3.13;1.50;;;;;;;11.00;95.51;99671.66;5062456;28;20203;-75
2022/12/29 03:44:06;;;;;;;2.60;1.43;;;;;;;11.05;95.11;99668.09;5059017;28;20185;-74
2022/12/29 03:46:31;;;;;;;1.47;1.30;;;;;;;11.04;94.86;99658.59;5060489;28;20201;-75
2022/12/29 03:48:57;;;;;;;1.20;1.10;;;;;;;11.03;95.17;99650.88;5062071;28;20237;-75
2022/12/29 03:51:22;;;;;;;2.73;1.40;;;;;;;10.99;95.23;99647.50;5062811;28;20187;-75
2022/12/29 03:53:47;;;;;;;2.07;1.30;;;;;;;10.89;95.43;99649.44;5062164;28;20662;-76
2022/12/29 03:56:13;;;;;;;2.23;1.60;;;;;;;10.81;95.50;99646.16;5060583;28;20673;-75
2022/12/29 03:58:38;;;;;;;1.83;1.30;;;;;;;10.68;95.94;99630.03;5058755;28;20179;-75
2022/12/29 04:01:03;;;;;;;2.20;1.47;;;;;;;10.61;96.38;99631.88;5061379;28;20187;-75
2022/12/29 04:03:29;;;;;;;1.80;1.30;;;;;;;10.49;96.84;99626.94;5059483;28;20241;-75
2022/12/29 04:05:54;;;;;;;1.40;1.30;;;;;;;10.42;97.14;99621.03;5068903;28;20176;-76
2022/12/29 04:08:19;;;;;;;3.33;1.50;;;;;;;10.38;97.01;99627.16;5091173;28;20253;-76
2022/12/29 04:10:45;;;;;;;1.43;1.30;;;;;;;10.35;97.09;99629.75;5077632;28;20198;-74
2022/12/29 04:13:10;;;;;;;2.50;1.30;;;;;;;10.31;97.21;99641.91;5061761;28;20555;-75
2022/12/29 04:15:36;;;;;;;2.10;1.30;;;;;;;10.28;97.21;99635.94;5062896;28;20190;-75
2022/12/29 04:18:04;;;;;;;3.43;1.57;;;;;;;10.27;97.22;99624.72;5061725;28;20289;-75
2022/12/29 04:23:24;;;;;;;1.97;1.40;;;;;;;10.34;97.26;99633.22;5061887;28;20736;-76
2022/12/29 04:25:49;;;;;;;2.27;1.40;;;;;;;10.36;97.41;99627.13;5061860;28;20197;-75
2022/12/29 04:28:16;;;;;;;3.73;1.50;;;;;;;10.39;97.27;99627.97;5063680;28;20262;-75
2022/12/29 04:30:42;;;;;;;2.17;1.50;;;;;;;10.36;97.55;99641.81;5062282;28;20539;-75
2022/12/29 04:33:08;;;;;;;1.93;1.70;;;;;;;10.34;97.42;99638.38;5058927;28;20258;-75
2022/12/29 04:35:33;;;;;;;2.73;1.57;;;;;;;10.33;97.94;99642.72;5058325;28;20187;-75
2022/12/29 04:37:58;;;;;;;1.37;1.23;;;;;;;10.33;98.07;99640.13;5062205;28;20214;-75
2022/12/29 04:40:24;;;;;;;2.60;1.60;;;;;;;10.32;98.33;99629.81;5062330;28;20303;-74
2022/12/29 04:42:50;;;;;;;3.43;1.50;;;;;;;10.31;98.50;99621.22;5057911;28;20409;-76
2022/12/29 04:45:15;;;;;;;3.03;1.50;;;;;;;10.29;98.99;99635.03;5059097;28;20205;-75
2022/12/29 04:47:40;;;;;;;2.67;1.90;;;;;;;10.37;98.92;99625.41;5054973;28;20613;-74
2022/12/29 04:50:06;;;;;;;2.13;1.53;;;;;;;10.45;98.97;99628.72;5062073;28;20187;-75
2022/12/29 04:52:32;;;;;;;2.57;1.60;;;;;;;10.56;98.74;99622.50;5061590;28;20276;-76
2022/12/29 04:54:57;;;;;;;3.23;1.50;;;;;;;10.64;98.41;99623.19;5060437;28;22002;-74
2022/12/29 04:57:22;;;;;;;1.60;1.40;;;;;;;10.74;98.22;99629.03;5070835;28;20705;-75
2022/12/29 04:59:48;;;;;;;2.20;1.60;;;;;;;10.80;97.75;99622.00;5062736;28;20615;-74
2022/12/29 05:02:13;;;;;;;2.57;1.80;;;;;;;10.86;97.95;99621.03;5058514;28;20218;-74
2022/12/29 05:04:38;;;;;;;4.20;1.90;;;;;;;10.90;97.92;99619.22;5060209;28;20189;-75
2022/12/29 05:07:04;;;;;;;3.37;1.60;;;;;;;10.96;97.90;99619.09;5056854;28;20210;-74
2022/12/29 05:09:29;;;;;;;2.00;1.47;;;;;;;10.97;97.62;99623.38;5059801;28;20272;-74
2022/12/29 05:11:55;;;;;;;3.73;1.80;;;;;;;11.01;97.72;99614.69;5058772;28;20186;-75
2022/12/29 05:14:20;;;;;;;2.33;1.73;;;;;;;11.03;97.85;99602.56;5058877;28;20257;-74
2022/12/29 05:16:45;;;;;;;3.30;1.60;;;;;;;11.06;97.87;99617.16;5057088;28;20259;-75
2022/12/29 05:19:11;;;;;;;2.60;1.90;;;;;;;11.09;97.63;99611.91;5052292;28;20198;-75
2022/12/29 05:21:36;;;;;;;1.77;1.60;;;;;;;11.12;97.43;99594.56;5053019;28;20219;-75
2022/12/29 05:24:01;;;;;;;2.40;1.60;;;;;;;11.16;97.17;99591.91;5054348;28;20984;-76
2022/12/29 05:26:26;;;;;;;4.03;1.90;;;;;;;11.17;97.15;99599.63;5056576;28;20230;-74
2022/12/29 05:28:52;;;;;;;3.23;1.90;;;;;;;11.19;97.26;99592.69;5058414;28;20226;-74
2022/12/29 05:31:17;;;;;;;2.53;1.83;;;;;;;11.18;97.11;99588.41;5058973;28;20271;-74
2022/12/29 05:33:42;;;;;;;2.10;1.90;;;;;;;11.16;97.27;99579.81;5054773;28;20227;-74
2022/12/29 05:36:09;;;;;;;2.67;1.80;;;;;;;11.14;97.72;99568.63;5056826;28;20188;-75
2022/12/29 05:38:34;;;;;;;2.00;1.80;;;;;;;11.12;97.81;99583.34;5055979;28;20241;-75
2022/12/29 05:41:00;;;;;;;1.87;1.53;;;;;;;11.09;98.10;99583.44;5056121;28;20194;-74
2022/12/29 05:43:25;;;;;;;2.37;1.67;;;;;;;11.10;97.77;99585.16;5057509;28;20259;-74
2022/12/29 05:45:51;;;;;;;2.27;1.70;;;;;;;11.07;98.04;99586.03;5057565;28;20597;-74
2022/12/29 05:48:17;;;;;;;1.43;1.33;;;;;;;11.04;98.20;99583.50;5057049;28;20690;-75
2022/12/29 05:50:42;;;;;;;1.57;1.40;;;;;;;11.02;98.11;99594.81;5058355;28;20214;-74
2022/12/29 05:53:08;;;;;;;2.33;1.90;;;;;;;10.93;98.49;99601.91;5057541;28;20383;-75
2022/12/29 05:55:34;;;;;;;2.00;1.33;;;;;;;10.86;98.60;99604.66;5057004;28;20222;-74
2022/12/29 05:57:59;;;;;;;1.57;1.40;;;;;;;10.83;98.82;99597.78;5055840;28;20253;-75
2022/12/29 06:00:25;;;;;;;3.83;1.83;;;;;;;10.84;98.50;99591.72;5057120;28;20284;-74
2022/12/29 06:02:50;;;;;;;1.63;1.53;;;;;;;10.78;98.62;99584.94;5057158;28;20244;-74
2022/12/29 06:05:16;;;;;;;3.23;1.90;;;;;;;10.76;98.80;99594.47;5057828;28;20656;-73
2022/12/29 06:07:41;;;;;;;1.73;1.63;;;;;;;10.73;99.06;99584.22;5057534;28;20695;-74
2022/12/29 06:10:07;;;;;;;2.47;1.73;;;;;;;10.71;98.93;99598.91;5057496;28;20271;-75
2022/12/29 06:12:32;;;;;;;2.30;1.73;;;;;;;10.72;98.98;99604.91;5057091;28;20281;-74
2022/12/29 06:14:58;;;;;;;2.17;1.90;;;;;;;10.77;98.55;99596.19;5062430;28;20702;-75
2022/12/29 06:17:23;;;;;;;3.13;2.03;;;;;;;10.81;98.58;99597.81;5061508;28;20299;-75
2022/12/29 06:19:48;;;;;;;2.87;2.00;;;;;;;10.89;97.81;99602.84;5074406;28;20194;-76
2022/12/29 06:22:14;;;;;;;2.27;1.90;;;;;;;10.94;97.48;99605.31;5084463;28;20693;-76
2022/12/29 06:24:39;;;;;;;4.53;2.17;;;;;;;11.01;96.66;99595.69;5055758;28;20206;-74
2022/12/29 06:27:04;;;;;;;3.10;1.80;;;;;;;11.04;96.47;99585.28;5056346;28;20216;-75
2022/12/29 06:29:30;;;;;;;2.40;1.97;;;;;;;11.06;96.32;99586.09;5057276;28;20785;-74
2022/12/29 06:31:58;;;;;;;2.87;1.93;;;;;;;11.10;95.62;99572.19;5062259;28;20188;-74
2022/12/29 06:34:26;;;;;;;3.33;1.80;;;;;;;11.14;94.92;99555.69;5059398;28;20560;-75
2022/12/29 06:36:51;;;;;;;2.10;1.90;;;;;;;11.07;95.60;99554.13;5063482;28;20270;-75
2022/12/29 06:39:17;;;;;;;4.07;1.93;;;;;;;11.01;95.20;99555.13;5066137;28;20187;-74
2022/12/29 06:41:42;;;;;;;4.93;2.17;;;;;;;10.91;95.48;99551.88;5066853;28;20583;-76
2022/12/29 06:44:07;;;;;;;2.00;1.80;;;;;;;10.90;95.22;99550.19;5063814;28;20221;-75
2022/12/29 06:46:33;;;;;;;2.73;2.00;;;;;;;10.90;95.10;99551.91;5061493;28;20703;-75
2022/12/29 06:48:58;;;;;;;3.13;1.73;;;;;;;10.88;95.22;99544.19;5067436;28;20490;-75
2022/12/29 06:51:23;;;;;;;1.90;1.60;;;;;;;10.94;94.63;99553.53;5068030;28;20799;-74
2022/12/29 06:53:49;;;;;;;2.97;1.90;;;;;;;10.97;94.70;99549.16;5064955;28;20190;-75
2022/12/29 06:56:14;;;;;;;3.57;2.10;;;;;;;11.01;94.30;99560.31;5063604;28;20223;-75
2022/12/29 06:58:39;;;;;;;2.87;1.87;;;;;;;11.07;94.04;99559.31;5066707;28;20669;-75
2022/12/29 07:01:05;;;;;;;2.20;2.00;;;;;;;11.12;93.74;99571.25;5066178;28;20192;-74
2022/12/29 07:03:30;;;;;;;2.77;2.20;;;;;;;11.10;93.61;99570.44;5065969;28;20296;-75
2022/12/29 07:05:57;;;;;;;3.50;2.20;;;;;;;11.16;92.81;99556.50;5061548;28;20197;-74
2022/12/29 07:08:23;;;;;;;4.37;2.50;;;;;;;11.18;92.78;99575.44;5062273;28;20203;-74
2022/12/29 07:10:48;;;;;;;2.93;2.47;;;;;;;11.22;92.58;99568.44;5064844;28;20179;-74
2022/12/29 07:13:14;;;;;;;2.70;2.10;;;;;;;11.22;92.23;99563.28;5063614;28;20273;-75
2022/12/29 07:15:39;;;;;;;2.73;2.13;;;;;;;11.15;92.46;99572.94;5055586;28;20651;-74
2022/12/29 07:18:05;;;;;;;3.47;2.30;;;;;;;11.11;92.53;99576.50;5056469;28;20237;-76
2022/12/29 07:20:31;;;;;;;3.87;2.40;;;;;;;11.07;92.75;99575.69;5061232;28;20572;-74
2022/12/29 07:22:56;;;;;;;2.20;1.90;;;;;;;11.07;92.51;99577.44;5057889;28;20212;-75
2022/12/29 07:25:22;;;;;;;2.17;1.90;;;;;;;11.08;92.57;99587.75;5057437;28;20295;-74
2022/12/29 07:27:48;;;;;;;2.73;2.03;;;;;;;11.13;92.45;99585.06;5067212;28;22118;-74
2022/12/29 07:30:13;;;;;;;3.20;2.07;;;;;;;11.15;92.20;99580.69;5067887;28;20186;-75
2022/12/29 07:32:39;;;;;;;2.27;1.97;;;;;;;11.16;92.23;99581.56;5064399;28;20183;-75
2022/12/29 07:35:05;;;;;;;2.67;2.20;;;;;;;11.18;91.89;99588.41;5064791;28;20237;-74
2022/12/29 07:37:30;;;;;;;2.33;1.63;;;;;;;11.19;91.74;99584.94;5066091;28;20544;-74
2022/12/29 07:39:55;;;;;;;3.83;2.00;;;;;;;11.21;91.77;99582.28;5055222;28;20187;-75
2022/12/29 07:42:20;;;;;;;2.53;1.70;;;;;;;11.19;91.27;99584.94;5064455;28;20703;-74
2022/12/29 07:44:46;;;;;;;3.23;2.10;;;;;;;11.23;90.97;99593.47;5063734;28;20282;-74
2022/12/29 07:47:11;;;;;;;2.27;2.00;;;;;;;11.27;90.88;99600.28;5060328;28;20538;-74
2022/12/29 07:49:36;;;;;;;3.83;2.10;;;;;;;11.25;91.11;99602.06;5057680;28;20229;-74
2022/12/29 07:52:02;;;;;;;2.97;1.90;;;;;;;11.27;91.11;99601.13;5067073;28;20186;-74
2022/12/29 07:54:27;;;;;;;2.43;1.80;;;;;;;11.22;91.18;99605.56;5065344;28;20178;-74
2022/12/29 07:56:52;;;;;;;3.30;2.00;;;;;;;11.23;91.12;99604.69;5058280;28;20208;-75
2022/12/29 07:59:18;;;;;;;2.80;2.10;;;;;;;11.20;90.99;99596.13;5062631;28;20206;-74
2022/12/29 08:01:43;;;;;;;2.70;2.20;;;;;;;11.17;91.26;99606.56;5063422;28;20222;-74
2022/12/29 08:04:09;;;;;;;2.50;2.03;;;;;;;11.15;91.34;99606.59;5063561;28;20186;-75
2022/12/29 08:06:34;;;;;;;4.17;2.00;;;;;;;11.20;90.90;99612.53;5059163;28;20657;-75
2022/12/29 08:09:00;;;;;;;2.50;1.93;;;;;;;11.19;90.77;99628.13;5062838;28;20196;-74
2022/12/29 08:11:26;;;;;;;2.90;1.97;;;;;;;11.23;91.41;99629.72;5061743;28;20211;-74
2022/12/29 08:13:51;;;;;;;4.33;2.13;;;;;;;11.34;90.98;99630.38;5060224;28;20687;-75
2022/12/29 08:16:17;;;;;;;2.73;2.03;;;;;;;11.41;90.95;99636.25;5061943;28;20242;-75
2022/12/29 08:18:42;;;;;;;2.07;1.67;;;;;;;11.55;89.76;99641.09;5057958;28;20179;-74
2022/12/29 08:21:07;;;;;;;3.73;1.60;;;;;;;11.59;89.64;99640.97;5063383;28;20287;-76
2022/12/29 08:23:33;;;;;;;2.60;2.03;;;;;;;11.68;89.24;99645.09;5060318;28;20776;-75
2022/12/29 08:25:59;;;;;;;2.50;2.00;;;;;;;11.69;89.34;99644.22;5061454;28;20180;-76
2022/12/29 08:28:25;;;;;;;2.87;1.70;;;;;;;11.76;89.16;99636.31;5060794;28;20282;-76
2022/12/29 08:30:50;;;;;;;1.93;1.60;;;;;;;11.77;89.05;99650.97;5065038;28;20303;-75
2022/12/29 08:33:16;;;;;;;2.37;1.60;;;;;;;11.84;88.78;99652.50;5064752;28;20176;-74
2022/12/29 08:35:41;;;;;;;2.27;1.80;;;;;;;11.90;88.48;99655.81;5090375;28;20244;-75
2022/12/29 08:38:06;;;;;;;3.53;2.13;;;;;;;11.95;88.26;99670.41;5093053;28;20979;-74
2022/12/29 08:40:32;;;;;;;3.40;1.93;;;;;;;12.02;87.74;99667.66;5068477;28;20189;-74
2022/12/29 08:42:57;;;;;;;2.07;1.93;;;;;;;12.09;87.83;99654.53;5064988;28;20222;-74
2022/12/29 08:45:22;;;;;;;2.13;1.60;;;;;;;12.11;88.12;99673.47;5061399;28;21034;-75
2022/12/29 08:47:47;;;;;;;1.97;1.50;;;;;;;12.11;88.01;99669.16;5059755;28;20256;-74
2022/12/29 08:50:13;;;;;;;3.23;1.80;;;;;;;12.23;87.41;99669.72;5064947;28;20189;-75
2022/12/29 08:52:38;;;;;;;2.63;1.60;;;;;;;12.27;87.86;99673.97;5062212;28;20196;-75
2022/12/29 08:55:04;;;;;;;2.40;1.70;;;;;;;12.37;87.36;99682.38;5062165;28;21285;-74
2022/12/29 08:57:29;;;;;;;4.03;1.73;;;;;;;12.39;87.24;99680.59;5059155;28;20266;-76
2022/12/29 08:59:54;;;;;;;1.67;1.30;;;;;;;12.44;87.05;99670.91;5062241;28;20307;-75
2022/12/29 09:02:20;;;;;;;2.00;1.60;;;;;;;12.44;87.46;99666.59;5061561;28;20218;-75
2022/12/29 09:04:45;;;;;;;2.97;1.67;;;;;;;12.43;87.67;99662.28;5062081;28;20200;-74
2022/12/29 09:07:10;;;;;;;4.47;1.80;;;;;;;12.48;87.84;99662.16;5063555;28;20202;-74
2022/12/29 09:09:36;;;;;;;2.83;1.93;;;;;;;12.51;88.10;99667.28;5062945;28;20212;-75
2022/12/29 09:12:01;;;;;;;1.90;1.70;;;;;;;12.56;87.51;99670.59;5064724;28;20197;-75
2022/12/29 09:14:26;;;;;;;3.00;1.90;;;;;;;12.54;87.81;99671.53;5062492;28;20185;-75
2022/12/29 09:19:37;;;;;;;2.93;1.83;;;;;;;12.52;88.35;99678.50;5062092;28;20739;-75
2022/12/29 09:22:03;;;;;;;3.50;1.60;;;;;;;12.54;88.40;99679.31;5058607;28;20204;-75
2022/12/29 09:24:28;;;;;;;1.47;1.37;;;;;;;12.56;88.16;99678.38;5062298;28;20189;-75
2022/12/29 09:26:53;;;;;;;1.90;1.70;;;;;;;12.65;88.25;99705.81;5062138;28;20624;-74
2022/12/29 09:29:19;;;;;;;3.80;1.60;;;;;;;12.69;88.06;99688.44;5062116;28;20187;-75
2022/12/29 09:31:44;;;;;;;3.67;1.87;;;;;;;12.71;88.10;99682.31;5059657;28;20328;-76
2022/12/29 09:34:09;;;;;;;2.27;1.67;;;;;;;12.83;87.81;99696.69;5061052;28;20283;-76
2022/12/29 09:36:35;;;;;;;2.47;1.87;;;;;;;12.93;87.94;99695.53;5061092;28;20207;-76
2022/12/29 09:39:00;;;;;;;3.23;1.70;;;;;;;13.06;87.63;99693.47;5058736;28;20648;-77
2022/12/29 09:41:48;;;;;;;1.80;1.57;;;;;;;13.27;86.53;99704.09;5062021;28;20181;-76
2022/12/29 09:44:27;;;;;;;3.10;1.70;;;;;;;13.34;86.86;99690.03;5057044;28;20193;-75
2022/12/29 09:46:55;;;;;;;3.10;1.70;;;;;;;13.44;86.91;99692.38;5060320;28;20223;-76
2022/12/29 09:49:23;;;;;;;2.53;1.77;;;;;;;13.59;86.39;99691.91;5062912;28;20190;-77
2022/12/29 09:51:52;;;;;;;2.87;1.47;;;;;;;13.64;85.94;99703.03;5058909;28;20226;-75
2022/12/29 09:54:31;;;;;;;3.40;1.67;;;;;;;13.76;86.45;99698.34;5059807;28;20209;-75
2022/12/29 09:56:57;;;;;;;3.13;1.93;;;;;;;13.90;85.99;99716.13;5062366;28;20204;-76
2022/12/29 09:59:39;;;;;;;3.53;1.73;;;;;;;13.94;85.29;99699.50;5062572;28;20190;-76
2022/12/29 10:02:20;;;;;;;5.77;2.27;;;;;;;13.97;85.17;99702.00;5056472;28;20202;-76
2022/12/29 10:04:46;;;;;;;3.03;1.60;;;;;;;14.06;85.49;99700.84;5056496;28;20330;-76
2022/12/29 10:07:14;;;;;;;2.03;1.67;;;;;;;14.25;85.30;99717.56;5061863;28;20296;-76
2022/12/29 10:10:15;;;;;;;5.00;1.90;;;;;;;14.43;84.85;99708.28;5059714;28;20239;-78
2022/12/29 10:13:23;;;;;;;2.37;1.63;;;;;;;14.64;84.00;99714.47;5064815;28;20190;-76
2022/12/29 10:16:16;;;;;;;2.30;1.93;;;;;;;14.75;83.99;99715.88;5058012;28;20280;-75
2022/12/29 10:19:11;;;;;;;2.40;2.00;;;;;;;14.78;84.07;99707.97;5061015;28;20182;-77
2022/12/29 10:21:55;;;;;;;1.97;1.50;;;;;;;14.78;83.77;99708.84;5066134;28;20195;-76
2022/12/29 10:24:21;;;;;;;3.87;3.10;;;;;;;14.75;84.19;99719.34;5064578;28;20197;-75
2022/12/29 10:26:51;;;;;;;3.33;1.80;;;;;;;14.79;84.25;99714.88;5065476;28;20300;-76
2022/12/29 10:29:20;;;;;;;1.93;1.43;;;;;;;14.78;84.76;99718.38;5064953;28;20639;-75
2022/12/29 10:31:54;;;;;;;2.73;1.80;;;;;;;14.81;85.08;99714.84;5065691;28;20217;-75
2022/12/29 10:34:28;;;;;;;1.87;1.60;;;;;;;14.80;84.43;99719.19;5065332;28;21138;-76
2022/12/29 10:36:59;;;;;;;2.50;2.30;;;;;;;14.61;85.36;99725.00;5066095;28;20258;-76
2022/12/29 10:39:34;;;;;;;1.90;1.70;;;;;;;14.56;86.29;99726.94;5065653;28;20247;-76
2022/12/29 10:42:25;;;;;;;2.57;1.73;;;;;;;14.49;87.01;99722.81;5066793;28;20258;-76
2022/12/29 10:44:51;;;;;;;1.57;1.40;;;;;;;14.61;85.95;99731.97;5064637;28;20193;-76
2022/12/29 10:47:24;;;;;;;2.37;1.70;;;;;;;14.60;85.56;99720.69;5069516;28;20289;-76
2022/12/29 10:49:50;;;;;;;2.50;1.67;;;;;;;14.59;86.34;99723.38;5091954;28;20210;-76
2022/12/29 10:52:19;;;;;;;2.40;1.40;;;;;;;14.54;85.89;99720.94;5100639;28;20253;-76
2022/12/29 10:54:59;;;;;;;1.93;1.60;;;;;;;14.48;85.84;99722.00;5064689;28;20194;-76
2022/12/29 10:57:26;;;;;;;1.93;1.73;;;;;;;14.36;86.09;99730.22;5066806;28;20275;-76
2022/12/29 10:59:52;;;;;;;1.73;1.47;;;;;;;14.26;86.44;99708.84;5065029;28;20239;-75
2022/12/29 11:02:38;;;;;;;2.80;1.30;;;;;;;14.06;87.20;99719.06;5064288;28;20665;-76
2022/12/29 11:05:14;;;;;;;2.63;1.43;;;;;;;13.93;88.17;99724.66;5067732;28;20180;-76
2022/12/29 11:07:39;;;;;;;2.47;1.67;;;;;;;13.81;88.50;99727.66;5071564;28;20209;-78
2022/12/29 11:10:29;;;;;;;2.73;1.30;;;;;;;13.71;88.83;99722.72;5067596;28;20239;-77
2022/12/29 11:13:03;;;;;;;2.10;1.57;;;;;;;13.72;88.86;99719.22;5065433;28;20191;-76
2022/12/29 11:15:42;;;;;;;2.83;1.60;;;;;;;13.76;89.08;99727.81;5068031;28;20193;-74
2022/12/29 11:18:24;;;;;;;4.03;1.53;;;;;;;13.76;88.88;99720.00;5065254;28;20213;-76
2022/12/29 11:20:54;;;;;;;3.30;1.60;;;;;;;13.65;89.39;99722.06;5062064;28;20189;-76
2022/12/29 11:23:32;;;;;;;3.50;1.80;;;;;;;13.57;89.71;99722.31;5076743;28;20288;-76
2022/12/29 11:26:10;;;;;;;2.60;1.63;;;;;;;13.48;90.17;99720.00;5065630;28;20212;-77
2022/12/29 11:28:36;;;;;;;3.10;1.60;;;;;;;13.45;90.60;99725.28;5064892;28;20178;-76
2022/12/29 11:31:03;;;;;;;2.17;1.67;;;;;;;13.52;90.35;99722.44;5058508;28;20189;-76
2022/12/29 11:33:30;;;;;;;3.43;1.50;;;;;;;13.66;89.38;99719.44;5060997;28;20812;-77
2022/12/29 11:36:08;;;;;;;1.67;1.47;;;;;;;13.81;88.63;99730.25;5061064;28;20189;-76
2022/12/29 11:38:37;;;;;;;3.57;1.50;;;;;;;13.86;88.18;99733.53;5062557;28;20217;-77
2022/12/29 11:41:05;;;;;;;2.53;1.73;;;;;;;13.90;87.75;99739.53;5060619;28;20254;-77
2022/12/29 11:43:33;;;;;;;1.67;1.17;;;;;;;13.91;87.51;99736.03;5058150;28;20219;-77
2022/12/29 11:46:00;;;;;;;2.10;1.20;;;;;;;13.93;87.40;99740.28;5059127;28;20192;-78
2022/12/29 11:48:29;;;;;;;1.60;1.10;;;;;;;14.01;87.31;99735.66;5060013;28;20182;-76
2022/12/29 11:51:00;;;;;;;1.30;0.80;;;;;;;14.08;86.53;99712.91;5059906;28;20287;-75
2022/12/29 11:53:42;;;;;;;1.47;0.70;;;;;;;14.07;85.96;99718.16;5057985;28;20213;-76
2022/12/29 11:56:12;;;;;;;2.00;0.90;;;;;;;14.06;86.28;99729.47;5059375;28;20189;-76
2022/12/29 11:58:38;;;;;;;1.33;0.80;;;;;;;13.99;86.60;99724.44;5060727;28;20201;-75
2022/12/29 12:01:23;;;;;;;1.03;0.90;;;;;;;13.97;86.19;99718.47;5056995;28;20578;-76
2022/12/29 12:04:14;;;;;;;1.20;0.80;;;;;;;13.95;86.00;99717.66;5056279;28;20191;-77
2022/12/29 12:06:46;;;;;;;1.70;1.10;;;;;;;13.92;86.09;99709.97;5059436;28;20283;-76
2022/12/29 12:09:25;;;;;;;1.50;1.03;;;;;;;13.94;86.47;99717.69;5061190;28;20190;-77
2022/12/29 12:11:53;;;;;;;1.80;1.07;;;;;;;13.94;87.27;99715.09;5055972;28;20210;-76
2022/12/29 12:14:54;;;;;;;3.23;1.20;;;;;;;13.99;87.90;99716.66;5059980;28;21819;-76
2022/12/29 12:17:59;;;;;;;1.50;1.00;;;;;;;14.07;87.25;99711.19;5041768;28;20278;-76
2022/12/29 12:20:38;;;;;;;1.00;0.80;;;;;;;14.06;87.70;99709.53;5056248;28;20922;-76